createdAt,value
2024-05-09T00:00:57.656Z,972.9500
2024-05-09T00:01:59.820Z,972.9500
2024-05-09T00:03:01.968Z,972.9500
2024-05-09T00:04:04.198Z,972.9500
2024-05-09T00:05:06.411Z,972.9500
2024-05-09T00:06:08.449Z,972.9300
2024-05-09T00:07:10.448Z,972.9500
2024-05-09T00:08:12.842Z,972.9300
2024-05-09T00:09:14.713Z,972.9500
2024-05-09T00:10:25.230Z,972.9100
2024-05-09T00:11:19.112Z,972.8900
2024-05-09T00:12:21.381Z,972.8900
2024-05-09T00:13:23.274Z,972.8700
2024-05-09T00:14:25.631Z,972.8700
2024-05-09T00:15:27.569Z,972.8700
2024-05-09T00:16:29.676Z,972.8700
2024-05-09T00:17:32.094Z,972.8700
2024-05-09T00:18:34.067Z,972.8700
2024-05-09T00:19:36.282Z,972.8500
2024-05-09T00:20:40.839Z,972.8500
2024-05-09T00:21:40.511Z,972.8300
2024-05-09T00:22:42.804Z,972.8300
2024-05-09T00:23:44.866Z,972.8300
2024-05-09T00:24:47.055Z,972.8100
2024-05-09T00:25:49.272Z,972.8100
2024-05-09T00:26:51.385Z,972.8300
2024-05-09T00:27:53.546Z,972.8100
2024-05-09T00:28:55.715Z,972.7900
2024-05-09T00:29:57.872Z,972.8100
2024-05-09T00:31:00.084Z,972.7900
2024-05-09T00:32:02.404Z,972.7900
2024-05-09T00:33:05.901Z,972.7900
2024-05-09T00:34:06.837Z,972.8100
2024-05-09T00:35:09.100Z,972.7900
2024-05-09T00:36:11.061Z,972.7900
2024-05-09T00:37:13.180Z,972.7900
2024-05-09T00:38:15.378Z,972.7900
2024-05-09T00:39:17.440Z,972.8100
2024-05-09T00:40:27.260Z,972.7900
2024-05-09T00:41:21.632Z,972.8100
2024-05-09T00:42:23.639Z,972.7900
2024-05-09T00:43:25.780Z,972.7900
2024-05-09T00:44:27.922Z,972.7900
2024-05-09T00:45:30.026Z,972.7900
2024-05-09T00:46:32.192Z,972.7700
2024-05-09T00:47:34.653Z,972.7700
2024-05-09T00:48:36.696Z,972.7500
2024-05-09T00:49:38.821Z,972.7500
2024-05-09T00:50:41.528Z,972.7500
2024-05-09T00:51:43.001Z,972.7300
2024-05-09T00:52:45.353Z,972.7300
2024-05-09T00:53:47.464Z,972.7200
2024-05-09T00:54:49.622Z,972.7200
2024-05-09T00:55:51.859Z,972.7300
2024-05-09T00:56:53.975Z,972.7500
2024-05-09T00:57:56.109Z,972.7700
2024-05-09T00:58:58.292Z,972.7200
2024-05-09T01:00:00.446Z,972.7300
2024-05-09T01:01:02.654Z,972.7200
2024-05-09T01:02:04.921Z,972.7200
2024-05-09T01:03:05.051Z,972.7500
2024-05-09T01:04:07.061Z,972.6800
2024-05-09T01:05:09.215Z,972.6800
2024-05-09T01:06:11.222Z,972.6800
2024-05-09T01:07:13.404Z,972.6800
2024-05-09T01:08:15.612Z,972.6800
2024-05-09T01:09:17.735Z,972.7200
2024-05-09T01:10:27.615Z,972.6800
2024-05-09T01:11:22.196Z,972.6600
2024-05-09T01:12:24.437Z,972.6600
2024-05-09T01:13:26.488Z,972.6600
2024-05-09T01:14:28.736Z,972.6800
2024-05-09T01:15:30.874Z,972.6600
2024-05-09T01:16:33.006Z,972.6200
2024-05-09T01:17:35.261Z,972.6800
2024-05-09T01:18:37.267Z,972.6600
2024-05-09T01:19:39.575Z,972.6200
2024-05-09T01:20:44.175Z,972.6600
2024-05-09T01:21:43.777Z,972.6600
2024-05-09T01:22:45.955Z,972.6400
2024-05-09T01:23:48.014Z,972.6400
2024-05-09T01:24:50.154Z,972.6200
2024-05-09T01:25:52.423Z,972.6000
2024-05-09T01:26:54.427Z,972.6200
2024-05-09T01:27:56.561Z,972.5600
2024-05-09T01:28:58.756Z,972.6200
2024-05-09T01:30:00.908Z,972.6000
2024-05-09T01:31:03.084Z,972.5600
2024-05-09T01:32:05.362Z,972.5600
2024-05-09T01:33:09.465Z,972.5600
2024-05-09T01:34:09.652Z,972.6000
2024-05-09T01:35:11.810Z,972.6000
2024-05-09T01:36:13.885Z,972.5600
2024-05-09T01:37:16.091Z,972.5600
2024-05-09T01:38:18.234Z,972.5800
2024-05-09T01:39:20.323Z,972.5600
2024-05-09T01:40:29.196Z,972.5600
2024-05-09T01:41:24.564Z,972.5400
2024-05-09T01:42:26.698Z,972.5400
2024-05-09T01:43:28.787Z,972.5400
2024-05-09T01:44:31.019Z,972.5200
2024-05-09T01:45:33.182Z,972.5000
2024-05-09T01:46:35.168Z,972.5200
2024-05-09T01:47:37.518Z,972.5200
2024-05-09T01:48:39.492Z,972.5200
2024-05-09T01:49:41.608Z,972.5200
2024-05-09T01:50:43.971Z,972.5000
2024-05-09T01:51:45.866Z,972.5000
2024-05-09T01:52:48.044Z,972.5200
2024-05-09T01:53:50.144Z,972.5200
2024-05-09T01:54:52.324Z,972.5400
2024-05-09T01:55:54.568Z,972.5000
2024-05-09T01:56:56.701Z,972.5400
2024-05-09T01:57:59.185Z,972.5000
2024-05-09T01:59:01.105Z,972.5000
2024-05-09T02:00:01.095Z,972.5200
2024-05-09T02:01:03.278Z,972.5000
2024-05-09T02:02:05.568Z,972.5000
2024-05-09T02:03:07.936Z,972.5000
2024-05-09T02:04:09.919Z,972.4600
2024-05-09T02:05:12.266Z,972.4600
2024-05-09T02:06:12.110Z,972.4600
2024-05-09T02:07:14.130Z,972.4400
2024-05-09T02:08:17.036Z,972.4600
2024-05-09T02:09:18.442Z,972.4400
2024-05-09T02:10:26.332Z,972.4400
2024-05-09T02:11:22.831Z,972.4200
2024-05-09T02:12:25.120Z,972.4200
2024-05-09T02:13:27.137Z,972.4000
2024-05-09T02:14:29.448Z,972.4000
2024-05-09T02:15:31.484Z,972.3600
2024-05-09T02:16:33.686Z,972.3300
2024-05-09T02:17:35.913Z,972.3300
2024-05-09T02:18:38.143Z,972.3100
2024-05-09T02:19:40.163Z,972.3300
2024-05-09T02:20:43.371Z,972.2900
2024-05-09T02:21:44.508Z,972.2900
2024-05-09T02:22:46.676Z,972.3100
2024-05-09T02:23:48.826Z,972.2900
2024-05-09T02:24:51.091Z,972.2900
2024-05-09T02:25:53.148Z,972.2500
2024-05-09T02:26:55.260Z,972.2500
2024-05-09T02:27:57.379Z,972.2900
2024-05-09T02:28:59.813Z,972.2700
2024-05-09T02:30:01.720Z,972.2900
2024-05-09T02:31:03.907Z,972.3400
2024-05-09T02:32:06.123Z,972.3400
2024-05-09T02:33:09.506Z,972.3300
2024-05-09T02:34:10.563Z,972.3300
2024-05-09T02:35:12.519Z,972.3100
2024-05-09T02:36:14.627Z,972.3400
2024-05-09T02:37:16.800Z,972.3400
2024-05-09T02:38:18.982Z,972.3300
2024-05-09T02:39:21.122Z,972.3100
2024-05-09T02:40:33.034Z,972.3100
2024-05-09T02:41:25.503Z,972.3100
2024-05-09T02:42:27.546Z,972.3100
2024-05-09T02:43:29.612Z,972.2700
2024-05-09T02:44:31.740Z,972.3100
2024-05-09T02:45:33.724Z,972.2900
2024-05-09T02:46:35.694Z,972.2900
2024-05-09T02:47:37.918Z,972.2900
2024-05-09T02:48:39.887Z,972.2700
2024-05-09T02:49:41.914Z,972.2500
2024-05-09T02:50:44.534Z,972.2700
2024-05-09T02:51:46.292Z,972.2700
2024-05-09T02:52:48.567Z,972.2700
2024-05-09T02:53:50.630Z,972.2500
2024-05-09T02:54:52.762Z,972.2700
2024-05-09T02:55:54.958Z,972.2900
2024-05-09T02:56:57.082Z,972.2900
2024-05-09T02:57:59.377Z,972.3100
2024-05-09T02:59:01.457Z,972.3300
2024-05-09T03:00:04.706Z,972.3100
2024-05-09T03:01:05.754Z,972.3100
2024-05-09T03:02:07.982Z,972.3100
2024-05-09T03:03:12.464Z,972.3300
2024-05-09T03:04:12.280Z,972.3300
2024-05-09T03:05:14.463Z,972.3100
2024-05-09T03:06:16.572Z,972.3100
2024-05-09T03:07:20.195Z,972.3300
2024-05-09T03:08:21.080Z,972.3100
2024-05-09T03:09:23.162Z,972.3100
2024-05-09T03:10:28.720Z,972.3300
2024-05-09T03:11:27.607Z,972.3300
2024-05-09T03:12:29.661Z,972.3400
2024-05-09T03:13:31.698Z,972.3300
2024-05-09T03:14:33.858Z,972.3300
2024-05-09T03:15:35.968Z,972.3400
2024-05-09T03:16:38.087Z,972.3100
2024-05-09T03:17:40.380Z,972.3300
2024-05-09T03:18:42.700Z,972.3300
2024-05-09T03:19:44.621Z,972.3300
2024-05-09T03:20:46.867Z,972.3400
2024-05-09T03:21:48.970Z,972.3300
2024-05-09T03:22:53.478Z,972.3300
2024-05-09T03:23:53.378Z,972.3400
2024-05-09T03:24:55.531Z,972.3400
2024-05-09T03:25:57.709Z,972.3400
2024-05-09T03:26:59.864Z,972.3600
2024-05-09T03:27:59.944Z,972.3400
2024-05-09T03:29:02.155Z,972.3400
2024-05-09T03:30:07.172Z,972.3600
2024-05-09T03:31:06.432Z,972.3400
2024-05-09T03:32:08.692Z,972.3600
2024-05-09T03:33:11.398Z,972.3400
2024-05-09T03:34:10.926Z,972.3300
2024-05-09T03:35:13.035Z,972.3300
2024-05-09T03:36:15.162Z,972.3300
2024-05-09T03:37:17.328Z,972.3300
2024-05-09T03:38:19.467Z,972.3400
2024-05-09T03:39:21.670Z,972.3100
2024-05-09T03:40:26.690Z,972.3100
2024-05-09T03:41:26.013Z,972.3300
2024-05-09T03:42:28.177Z,972.3100
2024-05-09T03:43:30.366Z,972.3600
2024-05-09T03:44:32.719Z,972.3400
2024-05-09T03:45:34.716Z,972.3400
2024-05-09T03:46:36.874Z,972.3600
2024-05-09T03:47:39.153Z,972.3400
2024-05-09T03:48:41.234Z,972.3800
2024-05-09T03:49:43.350Z,972.3600
2024-05-09T03:50:45.547Z,972.3800
2024-05-09T03:51:47.668Z,972.3800
2024-05-09T03:52:49.974Z,972.3800
2024-05-09T03:53:52.059Z,972.3800
2024-05-09T03:54:54.225Z,972.3800
2024-05-09T03:55:56.426Z,972.3600
2024-05-09T03:56:58.538Z,972.3800
2024-05-09T03:58:00.743Z,972.3600
2024-05-09T03:59:02.958Z,972.3800
2024-05-09T04:00:07.396Z,972.3600
2024-05-09T04:01:07.310Z,972.3400
2024-05-09T04:02:09.570Z,972.3600
2024-05-09T04:03:13.151Z,972.3800
2024-05-09T04:04:13.957Z,972.4000
2024-05-09T04:05:16.081Z,972.3800
2024-05-09T04:06:18.256Z,972.4200
2024-05-09T04:07:20.399Z,972.4200
2024-05-09T04:08:22.662Z,972.4000
2024-05-09T04:09:24.797Z,972.4000
2024-05-09T04:10:31.310Z,972.4200
2024-05-09T04:11:29.313Z,972.4200
2024-05-09T04:12:31.448Z,972.4400
2024-05-09T04:13:33.608Z,972.4400
2024-05-09T04:14:35.858Z,972.4200
2024-05-09T04:15:38.002Z,972.4400
2024-05-09T04:16:40.196Z,972.4400
2024-05-09T04:17:42.508Z,972.4000
2024-05-09T04:18:44.664Z,972.4400
2024-05-09T04:19:46.770Z,972.4400
2024-05-09T04:20:49.191Z,972.4800
2024-05-09T04:21:51.185Z,972.4800
2024-05-09T04:22:51.308Z,972.4800
2024-05-09T04:23:53.470Z,972.4400
2024-05-09T04:24:55.652Z,972.4400
2024-05-09T04:25:57.845Z,972.4400
2024-05-09T04:26:59.952Z,972.4200
2024-05-09T04:28:02.203Z,972.4400
2024-05-09T04:29:04.378Z,972.4000
2024-05-09T04:30:10.070Z,972.4000
2024-05-09T04:31:08.793Z,972.3800
2024-05-09T04:32:11.175Z,972.3800
2024-05-09T04:33:13.244Z,972.3600
2024-05-09T04:34:13.469Z,972.3600
2024-05-09T04:35:15.673Z,972.3800
2024-05-09T04:36:17.890Z,972.3400
2024-05-09T04:37:20.140Z,972.3600
2024-05-09T04:38:22.400Z,972.3600
2024-05-09T04:39:24.600Z,972.3100
2024-05-09T04:40:33.143Z,972.3400
2024-05-09T04:41:27.119Z,972.3600
2024-05-09T04:42:29.177Z,972.3400
2024-05-09T04:43:31.431Z,972.3400
2024-05-09T04:44:33.734Z,972.3300
2024-05-09T04:45:36.040Z,972.3300
2024-05-09T04:46:38.221Z,972.3400
2024-05-09T04:47:40.774Z,972.3400
2024-05-09T04:48:42.782Z,972.3600
2024-05-09T04:49:45.007Z,972.3400
2024-05-09T04:50:47.310Z,972.3400
2024-05-09T04:51:49.492Z,972.3400
2024-05-09T04:52:51.834Z,972.3800
2024-05-09T04:53:51.905Z,972.4000
2024-05-09T04:54:56.163Z,972.4000
2024-05-09T04:55:56.401Z,972.4400
2024-05-09T04:56:58.567Z,972.4200
2024-05-09T04:58:00.789Z,972.4200
2024-05-09T04:59:02.984Z,972.3800
2024-05-09T05:00:11.533Z,972.3600
2024-05-09T05:01:07.403Z,972.3600
2024-05-09T05:02:09.731Z,972.3800
2024-05-09T05:03:11.924Z,972.4200
2024-05-09T05:04:12.186Z,972.4400
2024-05-09T05:05:14.531Z,972.4600
2024-05-09T05:06:16.651Z,972.4800
2024-05-09T05:07:18.929Z,972.4600
2024-05-09T05:08:21.287Z,972.5000
2024-05-09T05:09:23.506Z,972.4800
2024-05-09T05:10:32.942Z,972.5400
2024-05-09T05:11:26.035Z,972.5200
2024-05-09T05:12:28.340Z,972.5400
2024-05-09T05:13:30.375Z,972.5200
2024-05-09T05:14:32.665Z,972.5200
2024-05-09T05:15:34.780Z,972.5000
2024-05-09T05:16:36.992Z,972.5400
2024-05-09T05:17:39.516Z,972.5200
2024-05-09T05:18:41.490Z,972.5200
2024-05-09T05:19:43.765Z,972.4800
2024-05-09T05:20:45.941Z,972.4800
2024-05-09T05:21:47.956Z,972.5000
2024-05-09T05:22:50.195Z,972.4800
2024-05-09T05:23:52.442Z,972.5000
2024-05-09T05:24:54.663Z,972.4800
2024-05-09T05:25:56.955Z,972.4800
2024-05-09T05:26:59.116Z,972.4800
2024-05-09T05:28:01.360Z,972.5200
2024-05-09T05:29:03.774Z,972.5000
2024-05-09T05:30:07.539Z,972.5400
2024-05-09T05:31:08.038Z,972.5600
2024-05-09T05:32:10.333Z,972.5400
2024-05-09T05:33:10.471Z,972.5800
2024-05-09T05:34:12.685Z,972.5600
2024-05-09T05:35:14.915Z,972.6200
2024-05-09T05:36:17.222Z,972.6400
2024-05-09T05:37:17.278Z,972.6200
2024-05-09T05:38:21.915Z,972.6200
2024-05-09T05:39:21.914Z,972.6600
2024-05-09T05:40:32.433Z,972.6400
2024-05-09T05:41:24.297Z,972.6400
2024-05-09T05:42:26.544Z,972.6400
2024-05-09T05:43:28.832Z,972.6200
2024-05-09T05:44:31.218Z,972.6200
2024-05-09T05:45:31.274Z,972.6600
2024-05-09T05:46:33.478Z,972.6400
2024-05-09T05:47:35.885Z,972.6200
2024-05-09T05:48:38.119Z,972.6200
2024-05-09T05:49:38.354Z,972.6200
2024-05-09T05:50:40.430Z,972.6000
2024-05-09T05:51:42.612Z,972.5600
2024-05-09T05:52:44.916Z,972.6200
2024-05-09T05:53:47.179Z,972.6200
2024-05-09T05:54:49.411Z,972.6400
2024-05-09T05:55:51.742Z,972.6200
2024-05-09T05:56:53.916Z,972.6400
2024-05-09T05:57:56.099Z,972.6600
2024-05-09T05:58:58.449Z,972.6800
2024-05-09T06:00:00.675Z,972.6800
2024-05-09T06:01:02.894Z,972.7000
2024-05-09T06:02:03.094Z,972.6800
2024-05-09T06:03:05.709Z,972.6800
2024-05-09T06:04:07.586Z,972.6400
2024-05-09T06:05:10.051Z,972.6600
2024-05-09T06:06:12.004Z,972.6800
2024-05-09T06:07:14.121Z,972.7200
2024-05-09T06:08:16.448Z,972.6800
2024-05-09T06:09:18.596Z,972.6800
2024-05-09T06:10:25.686Z,972.6800
2024-05-09T06:11:23.233Z,972.6600
2024-05-09T06:12:25.522Z,972.6600
2024-05-09T06:13:27.486Z,972.6400
2024-05-09T06:14:29.808Z,972.6400
2024-05-09T06:15:29.752Z,972.6800
2024-05-09T06:16:31.959Z,972.6800
2024-05-09T06:17:34.385Z,972.6800
2024-05-09T06:18:36.676Z,972.6800
2024-05-09T06:19:38.728Z,972.6800
2024-05-09T06:20:40.973Z,972.6800
2024-05-09T06:21:43.178Z,972.7000
2024-05-09T06:22:45.424Z,972.6600
2024-05-09T06:23:47.721Z,972.6400
2024-05-09T06:24:49.879Z,972.6200
2024-05-09T06:25:52.161Z,972.6200
2024-05-09T06:26:54.332Z,972.6200
2024-05-09T06:27:56.542Z,972.6200
2024-05-09T06:28:56.655Z,972.6200
2024-05-09T06:29:58.820Z,972.6000
2024-05-09T06:31:00.990Z,972.6000
2024-05-09T06:32:03.170Z,972.6000
2024-05-09T06:33:05.950Z,972.6000
2024-05-09T06:34:07.523Z,972.6200
2024-05-09T06:35:09.607Z,972.5800
2024-05-09T06:36:11.689Z,972.5600
2024-05-09T06:37:13.951Z,972.5600
2024-05-09T06:38:16.092Z,972.5800
2024-05-09T06:39:18.177Z,972.5800
2024-05-09T06:40:25.630Z,972.5800
2024-05-09T06:41:20.497Z,972.6000
2024-05-09T06:42:22.678Z,972.5800
2024-05-09T06:43:24.869Z,972.6200
2024-05-09T06:44:27.195Z,972.6200
2024-05-09T06:45:29.286Z,972.6400
2024-05-09T06:46:31.510Z,972.6200
2024-05-09T06:47:33.826Z,972.6200
2024-05-09T06:48:35.972Z,972.6200
2024-05-09T06:49:38.141Z,972.6200
2024-05-09T06:50:40.627Z,972.6200
2024-05-09T06:51:42.361Z,972.6400
2024-05-09T06:52:44.563Z,972.6000
2024-05-09T06:53:46.615Z,972.6200
2024-05-09T06:54:48.744Z,972.6000
2024-05-09T06:55:50.977Z,972.5800
2024-05-09T06:56:53.171Z,972.5800
2024-05-09T06:57:55.290Z,972.5800
2024-05-09T06:58:57.450Z,972.5400
2024-05-09T06:59:59.666Z,972.5800
2024-05-09T07:01:01.868Z,972.5400
2024-05-09T07:02:04.018Z,972.5200
2024-05-09T07:03:06.294Z,972.5400
2024-05-09T07:04:08.358Z,972.5400
2024-05-09T07:05:10.476Z,972.5600
2024-05-09T07:06:12.581Z,972.5600
2024-05-09T07:07:14.749Z,972.5400
2024-05-09T07:08:17.137Z,972.5600
2024-05-09T07:09:19.024Z,972.5600
2024-05-09T07:10:25.648Z,972.5600
2024-05-09T07:11:21.410Z,972.5400
2024-05-09T07:12:23.664Z,972.5200
2024-05-09T07:13:25.737Z,972.5400
2024-05-09T07:14:28.019Z,972.5400
2024-05-09T07:15:28.030Z,972.5400
2024-05-09T07:16:30.244Z,972.5800
2024-05-09T07:17:32.637Z,972.5400
2024-05-09T07:18:34.859Z,972.5600
2024-05-09T07:19:37.022Z,972.5600
2024-05-09T07:20:39.113Z,972.5400
2024-05-09T07:21:41.213Z,972.5400
2024-05-09T07:22:43.426Z,972.5400
2024-05-09T07:23:47.450Z,972.5200
2024-05-09T07:24:47.768Z,972.5200
2024-05-09T07:25:50.014Z,972.5200
2024-05-09T07:26:52.172Z,972.5000
2024-05-09T07:27:54.393Z,972.5200
2024-05-09T07:28:56.638Z,972.4800
2024-05-09T07:29:58.728Z,972.5000
2024-05-09T07:30:58.779Z,972.5000
2024-05-09T07:32:01.052Z,972.4800
2024-05-09T07:33:03.695Z,972.4800
2024-05-09T07:34:05.483Z,972.4800
2024-05-09T07:35:07.636Z,972.4800
2024-05-09T07:36:09.777Z,972.4600
2024-05-09T07:37:11.989Z,972.4600
2024-05-09T07:38:14.265Z,972.4600
2024-05-09T07:39:16.424Z,972.4400
2024-05-09T07:40:28.459Z,972.4200
2024-05-09T07:41:20.858Z,972.4400
2024-05-09T07:42:22.956Z,972.4000
2024-05-09T07:43:25.190Z,972.4000
2024-05-09T07:44:27.442Z,972.4000
2024-05-09T07:45:45.660Z,972.3800
2024-05-09T07:47:37.155Z,972.3800
2024-05-09T07:48:57.716Z,972.4000
2024-05-09T07:50:34.422Z,972.4000
2024-05-09T07:53:34.455Z,972.4000
2024-05-09T07:53:50.769Z,972.3800
2024-05-09T07:54:49.474Z,972.4200
2024-05-09T07:55:51.557Z,972.4000
2024-05-09T07:56:53.762Z,972.4400
2024-05-09T07:57:55.811Z,972.4400
2024-05-09T07:58:57.998Z,972.4600
2024-05-09T08:00:00.232Z,972.4600
2024-05-09T08:01:02.446Z,972.4400
2024-05-09T08:02:02.628Z,972.4800
2024-05-09T08:03:04.577Z,972.4400
2024-05-09T08:04:06.732Z,972.4200
2024-05-09T08:05:08.977Z,972.4400
2024-05-09T08:06:10.972Z,972.4600
2024-05-09T08:07:13.332Z,972.4600
2024-05-09T08:08:15.291Z,972.4200
2024-05-09T08:09:21.096Z,972.4400
2024-05-09T08:10:24.488Z,972.4200
2024-05-09T08:11:21.941Z,972.4600
2024-05-09T08:12:24.048Z,972.4200
2024-05-09T08:13:26.208Z,972.4200
2024-05-09T08:14:26.275Z,972.4000
2024-05-09T08:15:28.595Z,972.4000
2024-05-09T08:16:30.734Z,972.3800
2024-05-09T08:17:32.955Z,972.4200
2024-05-09T08:18:35.268Z,972.4000
2024-05-09T08:19:35.197Z,972.3800
2024-05-09T08:20:37.350Z,972.3800
2024-05-09T08:21:39.643Z,972.3400
2024-05-09T08:22:41.813Z,972.3400
2024-05-09T08:23:44.049Z,972.3300
2024-05-09T08:24:44.167Z,972.3400
2024-05-09T08:25:46.353Z,972.3300
2024-05-09T08:26:48.501Z,972.3300
2024-05-09T08:27:50.729Z,972.3600
2024-05-09T08:28:52.788Z,972.3600
2024-05-09T08:29:55.018Z,972.4000
2024-05-09T08:30:55.157Z,972.3600
2024-05-09T08:31:57.389Z,972.3800
2024-05-09T08:32:59.588Z,972.4000
2024-05-09T08:34:02.070Z,972.3600
2024-05-09T08:35:04.001Z,972.3800
2024-05-09T08:36:06.161Z,972.4000
2024-05-09T08:37:13.222Z,972.3600
2024-05-09T08:38:10.623Z,972.3800
2024-05-09T08:39:12.782Z,972.3600
2024-05-09T08:40:23.412Z,972.3800
2024-05-09T08:41:17.190Z,972.3800
2024-05-09T08:42:19.378Z,972.3800
2024-05-09T08:43:21.667Z,972.3800
2024-05-09T08:44:23.803Z,972.3600
2024-05-09T08:45:23.875Z,972.3600
2024-05-09T08:46:26.038Z,972.3400
2024-05-09T08:47:28.215Z,972.3800
2024-05-09T08:48:30.638Z,972.3600
2024-05-09T08:49:32.651Z,972.3400
2024-05-09T08:50:38.624Z,972.3800
2024-05-09T08:51:36.967Z,972.4000
2024-05-09T08:52:38.459Z,972.3600
2024-05-09T08:53:39.185Z,972.4000
2024-05-09T08:54:41.482Z,972.3800
2024-05-09T08:55:44.410Z,972.3800
2024-05-09T08:56:45.803Z,972.3800
2024-05-09T08:57:48.000Z,972.3600
2024-05-09T08:58:50.140Z,972.3800
2024-05-09T08:59:52.335Z,972.3600
2024-05-09T09:00:54.647Z,972.3600
2024-05-09T09:01:54.711Z,972.4000
2024-05-09T09:02:56.853Z,972.4000
2024-05-09T09:03:59.137Z,972.4000
2024-05-09T09:05:01.407Z,972.4400
2024-05-09T09:06:03.451Z,972.4400
2024-05-09T09:07:03.771Z,972.4600
2024-05-09T09:08:05.711Z,972.4400
2024-05-09T09:09:07.931Z,972.4400
2024-05-09T09:10:13.083Z,972.4800
2024-05-09T09:11:12.392Z,972.4800
2024-05-09T09:12:14.559Z,972.4600
2024-05-09T09:13:16.896Z,972.4600
2024-05-09T09:14:18.955Z,972.4600
2024-05-09T09:15:21.160Z,972.4800
2024-05-09T09:16:23.653Z,972.4800
2024-05-09T09:17:23.464Z,972.4600
2024-05-09T09:18:25.708Z,972.4800
2024-05-09T09:19:28.111Z,972.4600
2024-05-09T09:20:36.209Z,972.4600
2024-05-09T09:21:32.302Z,972.4600
2024-05-09T09:22:34.330Z,972.5000
2024-05-09T09:23:36.543Z,972.5200
2024-05-09T09:24:38.806Z,972.4800
2024-05-09T09:25:41.099Z,972.5000
2024-05-09T09:26:43.223Z,972.4800
2024-05-09T09:27:43.320Z,972.4800
2024-05-09T09:28:45.387Z,972.4800
2024-05-09T09:29:47.553Z,972.4800
2024-05-09T09:30:49.732Z,972.4800
2024-05-09T09:31:51.875Z,972.4600
2024-05-09T09:32:54.104Z,972.4400
2024-05-09T09:33:56.347Z,972.4400
2024-05-09T09:34:58.472Z,972.4200
2024-05-09T09:36:00.628Z,972.3800
2024-05-09T09:37:03.052Z,972.4000
2024-05-09T09:38:05.043Z,972.4000
2024-05-09T09:39:07.240Z,972.4000
2024-05-09T09:40:12.814Z,972.4000
2024-05-09T09:41:11.651Z,972.4200
2024-05-09T09:42:13.862Z,972.4000
2024-05-09T09:43:16.084Z,972.4200
2024-05-09T09:44:16.084Z,972.4400
2024-05-09T09:45:18.286Z,972.4400
2024-05-09T09:46:20.504Z,972.4200
2024-05-09T09:47:22.901Z,972.4400
2024-05-09T09:48:24.869Z,972.4400
2024-05-09T09:49:27.097Z,972.4200
2024-05-09T09:50:34.323Z,972.4200
2024-05-09T09:51:31.527Z,972.4200
2024-05-09T09:52:33.739Z,972.4400
2024-05-09T09:53:35.866Z,972.4200
2024-05-09T09:54:35.953Z,972.3800
2024-05-09T09:55:38.123Z,972.3800
2024-05-09T09:56:40.315Z,972.3800
2024-05-09T09:57:42.589Z,972.4000
2024-05-09T09:58:44.703Z,972.4000
2024-05-09T09:59:46.873Z,972.3600
2024-05-09T10:00:49.137Z,972.4000
2024-05-09T10:01:51.348Z,972.3800
2024-05-09T10:02:53.427Z,972.3800
2024-05-09T10:03:55.756Z,972.4000
2024-05-09T10:04:57.786Z,972.4000
2024-05-09T10:05:59.912Z,972.4000
2024-05-09T10:07:02.083Z,972.4000
2024-05-09T10:08:04.248Z,972.4000
2024-05-09T10:09:06.393Z,972.3600
2024-05-09T10:10:11.018Z,972.4000
2024-05-09T10:11:10.887Z,972.3600
2024-05-09T10:12:13.048Z,972.4000
2024-05-09T10:13:15.193Z,972.3600
2024-05-09T10:14:17.275Z,972.3800
2024-05-09T10:15:19.441Z,972.3600
2024-05-09T10:16:21.898Z,972.3400
2024-05-09T10:17:23.928Z,972.3100
2024-05-09T10:18:29.215Z,972.3100
2024-05-09T10:19:28.490Z,972.2900
2024-05-09T10:21:30.672Z,972.2900
2024-05-09T10:22:32.792Z,972.3400
2024-05-09T10:23:35.023Z,972.3400
2024-05-09T10:24:37.239Z,972.2900
2024-05-09T10:25:39.417Z,972.2900
2024-05-09T10:26:39.486Z,972.3100
2024-05-09T10:27:41.800Z,972.2700
2024-05-09T10:28:43.956Z,972.2700
2024-05-09T10:29:46.113Z,972.3100
2024-05-09T10:30:50.365Z,972.2900
2024-05-09T10:31:50.455Z,972.2700
2024-05-09T10:32:52.762Z,972.2500
2024-05-09T10:33:55.119Z,972.2500
2024-05-09T10:34:57.027Z,972.2500
2024-05-09T10:35:59.107Z,972.2300
2024-05-09T10:37:02.828Z,972.2500
2024-05-09T10:38:03.425Z,972.2300
2024-05-09T10:39:05.583Z,972.2500
2024-05-09T10:40:14.066Z,972.2300
2024-05-09T10:41:09.895Z,972.2500
2024-05-09T10:42:12.042Z,972.2100
2024-05-09T10:43:14.289Z,972.2300
2024-05-09T10:44:16.387Z,972.2300
2024-05-09T10:45:18.586Z,972.2100
2024-05-09T10:46:20.927Z,972.0900
2024-05-09T10:47:23.038Z,972.1100
2024-05-09T10:48:25.163Z,972.1100
2024-05-09T10:49:27.346Z,972.0700
2024-05-09T10:50:34.056Z,972.0900
2024-05-09T10:51:31.749Z,972.0900
2024-05-09T10:52:33.839Z,972.0500
2024-05-09T10:53:36.006Z,972.0300
2024-05-09T10:54:38.207Z,972.0100
2024-05-09T10:55:40.343Z,972.0100
2024-05-09T10:56:42.507Z,972.0100
2024-05-09T10:57:44.723Z,972.0100
2024-05-09T10:58:46.888Z,972.0100
2024-05-09T10:59:49.086Z,972.0100
2024-05-09T11:00:51.365Z,972.0300
2024-05-09T11:01:53.516Z,971.9900
2024-05-09T11:02:55.645Z,971.9900
2024-05-09T11:03:57.972Z,971.9700
2024-05-09T11:04:59.987Z,972.0100
2024-05-09T11:06:02.144Z,971.9900
2024-05-09T11:07:05.580Z,972.0100
2024-05-09T11:08:06.466Z,971.9700
2024-05-09T11:09:08.611Z,971.9900
2024-05-09T11:10:14.524Z,971.9700
2024-05-09T11:11:12.973Z,971.9500
2024-05-09T11:12:15.248Z,971.9100
2024-05-09T11:13:17.394Z,971.9500
2024-05-09T11:14:19.590Z,971.9500
2024-05-09T11:15:21.826Z,971.9300
2024-05-09T11:16:22.059Z,971.9300
2024-05-09T11:17:24.266Z,971.9500
2024-05-09T11:18:27.900Z,971.9100
2024-05-09T11:19:28.623Z,971.9500
2024-05-09T11:20:34.795Z,971.9300
2024-05-09T11:21:32.888Z,971.9500
2024-05-09T11:22:35.018Z,971.9700
2024-05-09T11:23:37.167Z,971.9700
2024-05-09T11:24:39.397Z,971.9500
2024-05-09T11:25:41.546Z,971.9300
2024-05-09T11:26:43.699Z,971.9300
2024-05-09T11:27:45.861Z,971.9100
2024-05-09T11:28:47.963Z,971.9300
2024-05-09T11:29:50.111Z,971.9300
2024-05-09T11:30:52.313Z,971.9300
2024-05-09T11:31:54.474Z,971.9100
2024-05-09T11:32:56.827Z,971.9100
2024-05-09T11:33:58.772Z,971.8900
2024-05-09T11:35:00.895Z,971.8900
2024-05-09T11:36:03.151Z,971.8700
2024-05-09T11:37:05.252Z,971.8500
2024-05-09T11:38:07.370Z,971.8300
2024-05-09T11:39:09.515Z,971.8100
2024-05-09T11:40:17.079Z,971.7900
2024-05-09T11:41:13.783Z,971.8100
2024-05-09T11:42:15.923Z,971.8100
2024-05-09T11:43:18.222Z,971.8100
2024-05-09T11:44:20.333Z,971.8300
2024-05-09T11:45:22.526Z,971.7900
2024-05-09T11:46:24.782Z,971.7900
2024-05-09T11:47:26.877Z,971.8100
2024-05-09T11:48:29.085Z,971.8100
2024-05-09T11:49:31.188Z,971.8300
2024-05-09T11:50:35.873Z,971.8100
2024-05-09T11:51:35.449Z,971.7900
2024-05-09T11:52:37.494Z,971.8100
2024-05-09T11:53:39.673Z,971.8100
2024-05-09T11:54:41.924Z,971.8100
2024-05-09T11:55:44.060Z,971.8100
2024-05-09T11:56:46.266Z,971.7900
2024-05-09T11:57:48.482Z,971.7900
2024-05-09T11:58:50.639Z,971.7900
2024-05-09T11:59:52.789Z,971.7100
2024-05-09T12:00:55.023Z,971.7500
2024-05-09T12:01:57.328Z,971.7700
2024-05-09T12:02:57.306Z,971.7100
2024-05-09T12:03:59.685Z,971.7100
2024-05-09T12:05:01.838Z,971.7900
2024-05-09T12:06:04.121Z,971.7100
2024-05-09T12:07:07.912Z,971.6700
2024-05-09T12:08:06.218Z,971.6700
2024-05-09T12:09:08.414Z,971.6400
2024-05-09T12:10:16.573Z,971.6400
2024-05-09T12:11:12.972Z,971.5800
2024-05-09T12:12:15.008Z,971.6000
2024-05-09T12:13:17.260Z,971.6000